Time;durP1;ratioP1;P1;durP2;ratioP2;P2;SDS_P1;SDS_P2;PMS_P1;PMS_P2;Temp;Humidity;BMP_temperature;BMP_pressure;BME280_temperature;BME280_humidity;BME280_pressure;Samples;Min_cycle;Max_cycle;Signal;HPM_P1;HPM_P2
2023/12/05 00:01:28;;;;;;;;;;;;;;;0.94;100.00;99797.03;5025185;28;19924;-76
2023/12/05 00:03:53;;;;;;;;;;;;;;;0.95;100.00;99795.31;5048253;28;19917;-77
2023/12/05 00:06:19;;;;;;;;;;;;;;;0.97;100.00;99791.91;5054098;28;19927;-76
2023/12/05 00:08:45;;;;;;;;;;;;;;;0.98;100.00;99798.81;5051159;28;19924;-77
2023/12/05 00:11:11;;;;;;;;;;;;;;;0.99;100.00;99797.97;5033535;28;20028;-77
2023/12/05 00:13:36;;;;;;;;;;;;;;;1.00;100.00;99791.09;5035509;28;20003;-77
2023/12/05 00:16:01;;;;;;;;;;;;;;;1.01;100.00;99787.66;5031545;28;19921;-76
2023/12/05 00:18:27;;;;;;;;;;;;;;;1.02;100.00;99794.53;5035060;28;19924;-76
2023/12/05 00:20:54;;;;;;;;;;;;;;;1.01;100.00;99788.50;5023349;28;19921;-76
2023/12/05 00:23:20;;;;;;;;;;;;;;;1.08;100.00;99789.44;5047559;28;19920;-77
2023/12/05 00:25:46;;;;;;;;;;;;;;;1.07;100.00;99786.84;5031341;28;19924;-77
2023/12/05 00:28:11;;;;;;;;;;;;;;;1.07;100.00;99789.44;5027120;28;19927;-75
2023/12/05 00:30:36;;;;;;;;;;;;;;;1.12;100.00;99791.22;5039413;28;20399;-76
2023/12/05 00:33:02;;;;;;;;;;;;;;;1.13;100.00;99785.19;5072495;28;19921;-77
2023/12/05 00:35:29;;;;;;;;;;;;;;;1.10;100.00;99781.72;5053745;28;19973;-76
2023/12/05 00:37:55;;;;;;;;;;;;;;;1.09;100.00;99772.25;5025557;28;19963;-76
2023/12/05 00:40:20;;;;;;;;;;;;;;;1.11;100.00;99774.00;5029441;28;20382;-77
2023/12/05 00:42:45;;;;;;;;;;;;;;;1.15;100.00;99774.88;5045511;28;19931;-77
2023/12/05 00:45:14;;;;;;;;;;;;;;;1.14;100.00;99770.59;5028008;28;20293;-77
2023/12/05 00:47:40;;;;;;;;;;;;;;;1.14;100.00;99774.03;5035004;28;19950;-77
2023/12/05 00:50:05;;;;;;;;;;;;;;;1.15;100.00;99772.28;5052923;28;20295;-76
2023/12/05 00:52:31;;;;;;;;;;;;;;;1.17;100.00;99771.47;5050649;28;19924;-75
2023/12/05 00:54:56;;;;;;;;;;;;;;;1.19;100.00;99781.78;5046572;28;19925;-77
2023/12/05 00:57:21;;;;;;;;;;;;;;;1.25;100.00;99781.00;5051993;28;19978;-77
2023/12/05 00:59:46;;;;;;;;;;;;;;;1.32;100.00;99778.50;5049882;28;19925;-77
2023/12/05 01:02:12;;;;;;;;;;;;;;;1.25;100.00;99779.28;5025419;28;19933;-77
2023/12/05 01:04:37;;;;;;;;;;;;;;;1.26;100.00;99782.72;5055312;28;19920;-77
2023/12/05 01:07:04;;;;;;;;;;;;;;;1.27;100.00;99775.00;5037844;28;20019;-77
2023/12/05 01:09:29;;;;;;;;;;;;;;;1.28;100.00;99779.31;5037809;28;19916;-77
2023/12/05 01:11:55;;;;;;;;;;;;;;;1.28;100.00;99770.69;5047398;28;19963;-77
2023/12/05 01:14:20;;;;;;;;;;;;;;;1.29;100.00;99770.69;5032083;28;20011;-76
2023/12/05 01:16:45;;;;;;;;;;;;;;;1.30;100.00;99766.41;5050106;28;19966;-76
2023/12/05 01:19:10;;;;;;;;;;;;;;;1.34;100.00;99769.03;5050175;28;19932;-76
2023/12/05 01:21:36;;;;;;;;;;;;;;;1.33;100.00;99759.56;5029219;28;19959;-77
2023/12/05 01:24:01;;;;;;;;;;;;;;;1.35;100.00;99764.72;5030542;28;19931;-77
2023/12/05 01:26:26;;;;;;;;;;;;;;;1.35;100.00;99751.81;5043449;28;19990;-77
2023/12/05 01:28:52;;;;;;;;;;;;;;;1.46;100.00;99759.66;5023084;28;19921;-77
2023/12/05 01:31:19;;;;;;;;;;;;;;;1.37;100.00;99761.31;5029746;28;19927;-77
2023/12/05 01:33:45;;;;;;;;;;;;;;;1.41;100.00;99759.63;5047157;28;19925;-77
2023/12/05 01:36:10;;;;;;;;;;;;;;;1.38;100.00;99759.63;5024465;28;19932;-77
2023/12/05 01:38:37;;;;;;;;;;;;;;;1.40;100.00;99757.03;5032852;28;19924;-77
2023/12/05 01:41:02;;;;;;;;;;;;;;;1.38;100.00;99757.03;5053022;28;19916;-77
2023/12/05 01:43:28;;;;;;;;;;;;;;;1.44;100.00;99767.41;5037620;28;19942;-78
2023/12/05 01:45:53;;;;;;;;;;;;;;;1.41;100.00;99754.47;5047438;28;19963;-78
2023/12/05 01:48:19;;;;;;;;;;;;;;;1.44;100.00;99756.19;5036254;28;19927;-78
2023/12/05 01:50:45;;;;;;;;;;;;;;;1.44;100.00;99756.19;5023323;28;19928;-78
2023/12/05 01:53:11;;;;;;;;;;;;;;;1.47;100.00;99762.25;5044919;28;19952;-76
2023/12/05 01:55:37;;;;;;;;;;;;;;;1.46;100.00;99764.84;5039811;28;19917;-76
2023/12/05 01:58:02;;;;;;;;;;;;;;;1.46;100.00;99762.25;5036376;28;19927;-76
2023/12/05 02:00:27;;;;;;;;;;;;;;;1.51;100.00;99763.16;5033593;28;20005;-76
2023/12/05 02:02:55;;;;;;;;;;;;;;;1.51;100.00;99776.06;5019139;28;19932;-77
2023/12/05 02:05:20;;;;;;;;;;;;;;;1.52;100.00;99770.91;5041811;28;19966;-77
2023/12/05 02:07:46;;;;;;;;;;;;;;;1.50;100.00;99767.44;5044933;28;19928;-77
2023/12/05 02:10:12;;;;;;;;;;;;;;;1.53;100.00;99772.63;5035779;28;20351;-76
2023/12/05 02:12:40;;;;;;;;;;;;;;;1.55;100.00;99776.09;5022041;28;19920;-76
2023/12/05 02:15:07;;;;;;;;;;;;;;;1.58;100.00;99777.84;5025341;28;19931;-77
2023/12/05 02:17:32;;;;;;;;;;;;;;;1.53;100.00;99776.94;5042165;28;19916;-77
2023/12/05 02:19:58;;;;;;;;;;;;;;;1.55;100.00;99775.22;5049809;28;19962;-76
2023/12/05 02:22:42;;;;;;;;;;;;;;;1.55;100.00;99770.94;5045546;28;19986;-77
2023/12/05 02:25:25;;;;;;;;;;;;;;;1.59;100.00;99763.22;5050308;28;19920;-77
2023/12/05 02:27:51;;;;;;;;;;;;;;;1.60;100.00;99767.53;5045392;28;19916;-77
2023/12/05 02:30:17;;;;;;;;;;;;;;;1.61;100.00;99767.53;5047444;28;19956;-77
2023/12/05 02:32:43;;;;;;;;;;;;;;;1.62;100.00;99771.81;5069352;28;19921;-78
2023/12/05 02:35:10;;;;;;;;;;;;;;;1.63;100.00;99773.56;5026833;28;19920;-78
2023/12/05 02:37:49;;;;;;;;;;;;;;;1.62;100.00;99756.34;5030697;28;19925;-77
2023/12/05 02:40:25;;;;;;;;;;;;;;;1.63;100.00;99759.81;5045343;28;19920;-78
2023/12/05 02:42:51;;;;;;;;;;;;;;;1.68;100.00;99750.34;5047081;28;19963;-77
2023/12/05 02:45:18;;;;;;;;;;;;;;;1.66;100.00;99760.66;5030171;28;20493;-77
2023/12/05 02:47:48;;;;;;;;;;;;;;;1.67;100.00;99757.25;5039988;28;19921;-77
2023/12/05 02:50:15;;;;;;;;;;;;;;;1.69;100.00;99757.25;5052424;28;20007;-77
2023/12/05 02:52:40;;;;;;;;;;;;;;;1.67;100.00;99749.50;5052162;28;20290;-77
2023/12/05 02:55:05;;;;;;;;;;;;;;;1.71;100.00;99756.41;5051165;28;19920;-77
2023/12/05 02:57:30;;;;;;;;;;;;;;;1.71;100.00;99756.41;5036158;28;20432;-77
2023/12/05 02:59:56;;;;;;;;;;;;;;;1.70;100.00;99756.41;5039846;28;19931;-76
2023/12/05 03:02:21;;;;;;;;;;;;;;;1.75;100.00;99756.44;5032347;28;20265;-77
2023/12/05 03:04:46;;;;;;;;;;;;;;;1.72;100.00;99752.97;5022644;28;19920;-78
2023/12/05 03:07:12;;;;;;;;;;;;;;;1.73;100.00;99752.09;5050104;28;19964;-77
2023/12/05 03:09:37;;;;;;;;;;;;;;;1.75;100.00;99753.84;5039748;28;19917;-77
2023/12/05 03:12:03;;;;;;;;;;;;;;;1.75;100.00;99738.34;5043057;28;19966;-77
2023/12/05 03:14:28;;;;;;;;;;;;;;;1.74;100.00;99740.09;5023747;28;19923;-76
2023/12/05 03:16:53;;;;;;;;;;;;;;;1.76;100.00;99742.66;5045180;28;19920;-77
2023/12/05 03:19:21;;;;;;;;;;;;;;;1.81;100.00;99740.97;5052718;28;20340;-76
2023/12/05 03:21:46;;;;;;;;;;;;;;;1.81;100.00;99740.97;5051439;28;20015;-76
2023/12/05 03:24:13;;;;;;;;;;;;;;;1.78;100.00;99735.78;5032657;28;20011;-77
2023/12/05 03:26:38;;;;;;;;;;;;;;;1.78;100.00;99730.63;5032693;28;19987;-77
2023/12/05 03:29:03;;;;;;;;;;;;;;;1.80;100.00;99734.94;5029541;28;19916;-77
2023/12/05 03:31:33;;;;;;;;;;;;;;;1.79;100.00;99730.63;5029694;28;19921;-77
2023/12/05 03:33:59;;;;;;;;;;;;;;;1.79;100.00;99735.78;5046642;28;19928;-76
2023/12/05 03:36:24;;;;;;;;;;;;;;;1.83;100.00;99727.22;5029468;28;19924;-77
2023/12/05 03:38:50;;;;;;;;;;;;;;;1.82;100.00;99734.94;5056075;28;19944;-77
2023/12/05 03:41:15;;;;;;;;;;;;;;;1.82;100.00;99732.38;5049118;28;20003;-76
2023/12/05 03:43:41;;;;;;;;;;;;;;;1.84;100.00;99735.81;5035944;28;20032;-77
2023/12/05 03:46:06;;;;;;;;;;;;;;;1.88;100.00;99730.69;5034393;28;19970;-76
2023/12/05 03:48:31;;;;;;;;;;;;;;;1.85;100.00;99732.38;5026963;28;20024;-76
2023/12/05 03:50:57;;;;;;;;;;;;;;;1.86;100.00;99739.28;5026864;28;19929;-77
2023/12/05 03:53:22;;;;;;;;;;;;;;;1.86;100.00;99745.31;5048445;28;19916;-77
2023/12/05 03:55:47;;;;;;;;;;;;;;;1.88;100.00;99748.78;5029017;28;20035;-77
2023/12/05 03:58:13;;;;;;;;;;;;;;;1.91;100.00;99747.91;5044995;28;20286;-77
2023/12/05 04:00:38;;;;;;;;;;;;;;;1.90;100.00;99751.38;5048653;28;19916;-77
2023/12/05 04:03:03;;;;;;;;;;;;;;;1.92;100.00;99753.97;5031332;28;19925;-77
2023/12/05 04:05:28;;;;;;;;;;;;;;;1.91;100.00;99753.06;5033810;28;19924;-76
2023/12/05 04:07:54;;;;;;;;;;;;;;;1.94;100.00;99757.41;5022069;28;20325;-76
2023/12/05 04:10:19;;;;;;;;;;;;;;;1.93;100.00;99761.72;5027136;28;19921;-76
2023/12/05 04:12:45;;;;;;;;;;;;;;;1.95;100.00;99764.31;5049320;28;19917;-76
2023/12/05 04:15:11;;;;;;;;;;;;;;;1.95;100.00;99765.16;5051485;28;19925;-76
2023/12/05 04:17:36;;;;;;;;;;;;;;;1.96;100.00;99761.72;5021212;28;20023;-77
2023/12/05 04:20:01;;;;;;;;;;;;;;;1.96;100.00;99766.03;5020457;28;19927;-76
2023/12/05 04:22:27;;;;;;;;;;;;;;;1.98;100.00;99764.31;5049660;28;19951;-76
2023/12/05 04:24:53;;;;;;;;;;;;;;;1.97;100.00;99772.91;5028961;28;19920;-77
2023/12/05 04:27:18;;;;;;;;;;;;;;;1.98;100.00;99777.25;5028886;28;19981;-76
2023/12/05 04:29:44;;;;;;;;;;;;;;;1.98;100.00;99780.69;5029175;28;19972;-77
2023/12/05 04:32:10;;;;;;;;;;;;;;;1.99;100.00;99777.25;5046091;28;20015;-76
2023/12/05 04:34:35;;;;;;;;;;;;;;;2.02;100.00;99781.56;5031087;28;19982;-77
2023/12/05 04:37:01;;;;;;;;;;;;;;;1.99;100.00;99787.59;5041280;28;19917;-77
2023/12/05 04:39:27;;;;;;;;;;;;;;;2.00;100.00;99778.97;5046420;28;19928;-76
2023/12/05 04:41:52;;;;;;;;;;;;;;;2.01;100.00;99779.84;5051744;28;19930;-77
2023/12/05 04:44:17;;;;;;;;;;;;;;;2.10;100.00;99781.59;5050227;28;19928;-76
2023/12/05 04:46:43;;;;;;;;;;;;;;;2.02;100.00;99772.09;5026737;28;20377;-76
2023/12/05 04:49:08;;;;;;;;;;;;;;;2.04;100.00;99775.56;5067020;28;19921;-76
2023/12/05 04:51:33;;;;;;;;;;;;;;;2.08;100.00;99781.59;5031763;28;19920;-77
2023/12/05 04:53:59;;;;;;;;;;;;;;;2.08;100.00;99787.66;5030052;28;19920;-76
2023/12/05 04:56:24;;;;;;;;;;;;;;;2.08;100.00;99784.19;5041958;28;19966;-77
2023/12/05 04:58:49;;;;;;;;;;;;;;;2.12;100.00;99790.25;5037790;28;19924;-76
2023/12/05 05:01:15;;;;;;;;;;;;;;;2.07;100.00;99785.91;5032251;28;20407;-76
2023/12/05 05:03:40;;;;;;;;;;;;;;;2.09;100.00;99793.69;5026725;28;19928;-76
2023/12/05 05:06:05;;;;;;;;;;;;;;;2.10;100.00;99792.84;5036022;28;19927;-76
2023/12/05 05:08:32;;;;;;;;;;;;;;;2.11;100.00;99793.69;5029197;28;19932;-76
2023/12/05 05:10:57;;;;;;;;;;;;;;;2.08;100.00;99798.00;5046618;28;19920;-76
2023/12/05 05:13:22;;;;;;;;;;;;;;;2.10;100.00;99795.41;5033921;28;19974;-76
2023/12/05 05:15:48;;;;;;;;;;;;;;;2.13;100.00;99800.59;5040677;28;20429;-76
2023/12/05 05:18:13;;;;;;;;;;;;;;;2.12;100.00;99788.53;5020597;28;19924;-76
2023/12/05 05:20:38;;;;;;;;;;;;;;;2.13;100.00;99794.56;5049809;28;20378;-76
2023/12/05 05:23:03;;;;;;;;;;;;;;;2.13;100.00;99794.56;5043731;28;19921;-77
2023/12/05 05:25:29;;;;;;;;;;;;;;;2.13;100.00;99795.44;5031111;28;19944;-76
2023/12/05 05:27:54;;;;;;;;;;;;;;;2.14;100.00;99804.91;5026825;28;19921;-76
2023/12/05 05:30:19;;;;;;;;;;;;;;;2.19;100.00;99804.94;5035437;28;20378;-77
2023/12/05 05:32:45;;;;;;;;;;;;;;;2.16;100.00;99803.19;5035044;28;20003;-77
2023/12/05 05:35:10;;;;;;;;;;;;;;;2.20;100.00;99806.69;5027376;28;20031;-78
2023/12/05 05:37:36;;;;;;;;;;;;;;;2.19;100.00;99812.69;5019453;28;20356;-78
2023/12/05 05:40:02;;;;;;;;;;;;;;;2.18;100.00;99808.38;5031929;28;19920;-77
2023/12/05 05:42:27;;;;;;;;;;;;;;;2.19;100.00;99800.63;5046621;28;19925;-78
2023/12/05 05:44:55;;;;;;;;;;;;;;;2.21;100.00;99809.28;5031066;28;20016;-78
2023/12/05 05:47:20;;;;;;;;;;;;;;;2.22;100.00;99810.13;5046262;28;20409;-77
2023/12/05 05:49:46;;;;;;;;;;;;;;;2.24;100.00;99814.44;5051990;28;20012;-76
2023/12/05 05:52:11;;;;;;;;;;;;;;;2.28;100.00;99815.31;5037142;28;19974;-77
2023/12/05 05:54:36;;;;;;;;;;;;;;;2.27;100.00;99816.19;5046394;28;19931;-77
2023/12/05 05:57:02;;;;;;;;;;;;;;;2.29;100.00;99817.06;5048835;28;20007;-78
2023/12/05 05:59:27;;;;;;;;;;;;;;;2.30;100.00;99823.06;5035196;28;19920;-77
2023/12/05 06:01:52;;;;;;;;;;;;;;;2.31;100.00;99825.66;5020953;28;19925;-77
2023/12/05 06:04:17;;;;;;;;;;;;;;;2.31;100.00;99820.50;5030966;28;19916;-77
2023/12/05 06:06:43;;;;;;;;;;;;;;;2.33;100.00;99818.81;5022894;28;19949;-78
2023/12/05 06:09:09;;;;;;;;;;;;;;;2.33;100.00;99823.97;5042096;28;20315;-77
2023/12/05 06:11:34;;;;;;;;;;;;;;;2.35;100.00;99822.25;5046482;28;19977;-77
2023/12/05 06:13:59;;;;;;;;;;;;;;;2.36;100.00;99824.00;5029595;28;19927;-77
2023/12/05 06:16:27;;;;;;;;;;;;;;;2.38;100.00;99835.19;5047215;28;19925;-77
2023/12/05 06:18:53;;;;;;;;;;;;;;;2.37;100.00;99835.19;5051459;28;19970;-76
2023/12/05 06:21:19;;;;;;;;;;;;;;;2.39;100.00;99833.50;5040111;28;19995;-77
2023/12/05 06:23:44;;;;;;;;;;;;;;;2.39;100.00;99836.06;5031379;28;19932;-77
2023/12/05 06:26:09;;;;;;;;;;;;;;;2.39;100.00;99842.09;5033967;28;19925;-77
2023/12/05 06:28:35;;;;;;;;;;;;;;;2.37;100.00;99830.91;5040479;28;19999;-76
2023/12/05 06:31:00;;;;;;;;;;;;;;;2.36;100.00;99839.50;5050831;28;20015;-77
2023/12/05 06:33:25;;;;;;;;;;;;;;;2.34;100.00;99836.06;5043817;28;20295;-77
2023/12/05 06:35:51;;;;;;;;;;;;;;;2.33;100.00;99836.03;5027639;28;19920;-76
2023/12/05 06:38:16;;;;;;;;;;;;;;;2.31;100.00;99846.34;5047070;28;19976;-77
2023/12/05 06:40:41;;;;;;;;;;;;;;;2.32;100.00;99853.25;5049265;28;19921;-77
2023/12/05 06:43:07;;;;;;;;;;;;;;;2.29;100.00;99854.97;5021115;28;20275;-77
2023/12/05 06:45:34;;;;;;;;;;;;;;;2.29;100.00;99857.56;5032449;28;19928;-77
2023/12/05 06:48:00;;;;;;;;;;;;;;;2.26;100.00;99853.22;5050668;28;19925;-77
2023/12/05 06:50:25;;;;;;;;;;;;;;;2.24;100.00;99860.09;5037498;28;19924;-77
2023/12/05 06:52:51;;;;;;;;;;;;;;;2.21;100.00;99866.13;5047250;28;20386;-77
2023/12/05 06:55:17;;;;;;;;;;;;;;;2.22;100.00;99869.56;5028629;28;19935;-77
2023/12/05 06:57:42;;;;;;;;;;;;;;;2.19;100.00;99866.97;5061449;28;19916;-77
2023/12/05 07:00:08;;;;;;;;;;;;;;;2.18;100.00;99873.84;5028639;28;19920;-77
2023/12/05 07:02:35;;;;;;;;;;;;;;;2.18;100.00;99878.16;5029133;28;19932;-77
2023/12/05 07:05:04;;;;;;;;;;;;;;;2.21;100.00;99883.34;5028872;28;19921;-77
2023/12/05 07:07:29;;;;;;;;;;;;;;;2.16;100.00;99878.16;5053563;28;19923;-77
2023/12/05 07:09:54;;;;;;;;;;;;;;;2.15;100.00;99884.16;5032082;28;19924;-77
2023/12/05 07:12:19;;;;;;;;;;;;;;;2.15;100.00;99886.75;5049274;28;20546;-77
2023/12/05 07:14:45;;;;;;;;;;;;;;;2.14;100.00;99890.22;5052616;28;19920;-77
2023/12/05 07:17:10;;;;;;;;;;;;;;;2.11;100.00;99892.75;5029575;28;19928;-78
2023/12/05 07:19:35;;;;;;;;;;;;;;;2.13;100.00;99901.41;5035375;28;20301;-78
2023/12/05 07:22:01;;;;;;;;;;;;;;;2.08;100.00;99903.06;5053800;28;19931;-78
2023/12/05 07:24:26;;;;;;;;;;;;;;;2.07;100.00;99904.78;5053124;28;19927;-78
2023/12/05 07:26:51;;;;;;;;;;;;;;;2.05;100.00;99916.84;5044379;28;19924;-78
2023/12/05 07:29:17;;;;;;;;;;;;;;;2.04;100.00;99907.38;5053981;28;20350;-77
2023/12/05 07:31:43;;;;;;;;;;;;;;;2.01;100.00;99920.25;5028490;28;19928;-78
2023/12/05 07:34:08;;;;;;;;;;;;;;;2.11;100.00;99920.31;5037010;28;20032;-78
2023/12/05 07:36:33;;;;;;;;;;;;;;;2.00;100.00;99922.84;5052219;28;19921;-77
2023/12/05 07:38:59;;;;;;;;;;;;;;;2.00;100.00;99925.41;5053589;28;19921;-77
2023/12/05 07:41:24;;;;;;;;;;;;;;;1.99;100.00;99931.44;5032320;28;20274;-77
2023/12/05 07:43:49;;;;;;;;;;;;;;;2.05;100.00;99932.38;5072559;28;19924;-77
2023/12/05 07:46:15;;;;;;;;;;;;;;;1.97;100.00;99939.19;5030810;28;19928;-76
2023/12/05 07:48:41;;;;;;;;;;;;;;;1.96;100.00;99936.59;5041367;28;19921;-77
2023/12/05 07:51:06;;;;;;;;;;;;;;;1.96;100.00;99942.59;5039999;28;19920;-77
2023/12/05 07:53:31;;;;;;;;;;;;;;;1.94;100.00;99944.31;5040164;28;19917;-76
2023/12/05 07:55:57;;;;;;;;;;;;;;;1.91;100.00;99949.44;5028931;28;19971;-77
2023/12/05 07:58:25;;;;;;;;;;;;;;;1.89;100.00;99946.84;5043043;28;19925;-76
2023/12/05 08:00:50;;;;;;;;;;;;;;;1.89;100.00;99940.81;5020548;28;19924;-76
2023/12/05 08:03:16;;;;;;;;;;;;;;;1.90;100.00;99947.72;5033863;28;19929;-77
2023/12/05 08:05:41;;;;;;;;;;;;;;;1.89;100.00;99958.91;5040827;28;20385;-77
2023/12/05 08:08:06;;;;;;;;;;;;;;;1.86;100.00;99958.88;5038118;28;19935;-76
2023/12/05 08:10:33;;;;;;;;;;;;;;;1.85;100.00;99962.31;5118783;23;19993;-74
2023/12/05 08:12:58;;;;;;;;;;;;;;;1.85;100.00;99970.06;5061756;28;19920;-74
2023/12/05 08:15:24;;;;;;;;;;;;;;;1.83;100.00;99967.47;5095169;23;20388;-75
2023/12/05 08:17:49;;;;;;;;;;;;;;;1.83;100.00;99969.19;5088483;28;19930;-74
2023/12/05 08:20:14;;;;;;;;;;;;;;;1.84;100.00;99983.81;5092011;28;19912;-74
2023/12/05 08:22:40;;;;;;;;;;;;;;;1.84;100.00;99976.06;5075165;28;20351;-74
2023/12/05 08:25:07;;;;;;;;;;;;;;;1.83;100.00;99982.97;5075650;28;19929;-74
2023/12/05 08:27:33;;;;;;;;;;;;;;;1.83;100.00;99992.44;5093018;28;19920;-75
2023/12/05 08:29:59;;;;;;;;;;;;;;;1.82;100.00;99996.72;5079998;28;20381;-74
2023/12/05 08:32:24;;;;;;;;;;;;;;;1.79;100.00;100001.00;5132537;22;19958;-75
2023/12/05 08:34:49;;;;;;;;;;;;;;;1.78;100.00;100004.44;5097950;22;20039;-75
2023/12/05 08:37:15;;;;;;;;;;;;;;;1.79;100.00;100006.16;5070802;28;19921;-75
2023/12/05 08:39:40;;;;;;;;;;;;;;;1.79;100.00;100008.75;5099887;22;19933;-76
2023/12/05 08:42:05;;;;;;;;;;;;;;;1.76;100.00;100009.56;5052830;28;19974;-76
2023/12/05 08:44:31;;;;;;;;;;;;;;;1.76;100.00;100014.75;5052718;28;20011;-76
2023/12/05 08:46:57;;;;;;;;;;;;;;;1.79;100.00;100016.50;5043726;28;19943;-76
2023/12/05 08:49:22;;;;;;;;;;;;;;;1.80;100.00;100010.50;5041511;28;19917;-76
2023/12/05 08:51:47;;;;;;;;;;;;;;;1.79;100.00;100019.09;5054474;28;19924;-76
2023/12/05 08:54:13;;;;;;;;;;;;;;;1.81;100.00;100026.00;5055824;28;19913;-76
2023/12/05 08:56:38;;;;;;;;;;;;;;;1.80;100.00;100018.25;5051420;28;19939;-78
2023/12/05 08:59:03;;;;;;;;;;;;;;;1.79;100.00;100026.84;5053987;28;20369;-78
2023/12/05 09:01:29;;;;;;;;;;;;;;;1.80;100.00;100015.66;5055557;28;19916;-78
2023/12/05 09:03:55;;;;;;;;;;;;;;;1.80;100.00;100020.81;5033431;28;19928;-77
2023/12/05 09:06:20;;;;;;;;;;;;;;;1.81;100.00;100027.69;5043684;28;19920;-76
2023/12/05 09:08:47;;;;;;;;;;;;;;;1.77;100.00;100031.09;5044218;28;20073;-76
2023/12/05 09:11:12;;;;;;;;;;;;;;;1.77;100.00;100032.00;5051683;28;19916;-76
2023/12/05 09:13:38;;;;;;;;;;;;;;;1.76;100.00;100032.81;5054980;28;19939;-76
2023/12/05 09:16:03;;;;;;;;;;;;;;;1.76;100.00;100043.16;5036051;28;19963;-76
2023/12/05 09:18:28;;;;;;;;;;;;;;;1.78;100.00;100038.00;5030732;28;19920;-76
2023/12/05 09:20:54;;;;;;;;;;;;;;;1.79;100.00;100048.34;5048287;28;19927;-76
2023/12/05 09:23:19;;;;;;;;;;;;;;;1.77;100.00;100050.06;5031293;28;20354;-76
2023/12/05 09:25:45;;;;;;;;;;;;;;;1.78;100.00;100053.50;5054509;28;20441;-76
2023/12/05 09:28:10;;;;;;;;;;;;;;;1.78;100.00;100056.09;5037519;28;19928;-76
2023/12/05 09:30:36;;;;;;;;;;;;;;;1.79;100.00;100057.84;5053774;28;19921;-77
2023/12/05 09:33:01;;;;;;;;;;;;;;;1.84;100.00;100064.78;5032052;28;19920;-76
2023/12/05 09:35:27;;;;;;;;;;;;;;;1.84;100.00;100063.91;5034209;28;19921;-76
2023/12/05 09:37:53;;;;;;;;;;;;;;;1.89;100.00;100059.66;5022883;28;19928;-76
2023/12/05 09:40:19;;;;;;;;;;;;;;;1.96;100.00;100065.78;5048405;28;20405;-76
2023/12/05 09:42:47;;;;;;;;;;;;;;;2.00;100.00;100070.13;5034472;28;19925;-76
2023/12/05 09:45:13;;;;;;;;;;;;;;;2.02;100.00;100068.41;5038637;28;20003;-76
2023/12/05 09:47:41;;;;;;;;;;;;;;;2.01;100.00;100074.44;5048567;28;19920;-76
2023/12/05 09:50:06;;;;;;;;;;;;;;;2.00;100.00;100081.31;5054393;28;19917;-76
2023/12/05 09:52:32;;;;;;;;;;;;;;;1.99;100.00;100071.84;5049491;28;19926;-76
2023/12/05 09:54:58;;;;;;;;;;;;;;;2.01;100.00;100079.59;5033801;28;19940;-76
2023/12/05 09:57:24;;;;;;;;;;;;;;;2.01;100.00;100075.31;5053235;28;19925;-76
2023/12/05 09:59:49;;;;;;;;;;;;;;;2.02;100.00;100087.38;5054839;28;20273;-76
2023/12/05 10:02:15;;;;;;;;;;;;;;;2.01;100.00;100089.94;5059411;28;19925;-76
2023/12/05 10:04:42;;;;;;;;;;;;;;;2.02;100.00;100089.94;5022277;28;19921;-76
2023/12/05 10:07:09;;;;;;;;;;;;;;;2.05;100.00;100091.72;5021547;28;20153;-76
2023/12/05 10:09:35;;;;;;;;;;;;;;;2.11;100.00;100093.50;5046707;28;19923;-77
2023/12/05 10:12:00;;;;;;;;;;;;;;;2.17;100.00;100090.97;5065156;28;19920;-76
2023/12/05 10:14:26;;;;;;;;;;;;;;;2.25;100.00;100104.84;5033077;28;19932;-76
2023/12/05 10:16:53;;;;;;;;;;;;;;;2.38;100.00;100111.88;5032823;28;19970;-77
2023/12/05 10:19:19;;;;;;;;;;;;;;;2.38;100.00;100109.28;5054170;28;19920;-77
2023/12/05 10:21:44;;;;;;;;;;;;;;;2.42;100.00;100112.78;5050848;28;20393;-77
2023/12/05 10:24:28;;;;;;;;;;;;;;;2.45;100.00;100117.13;5047398;28;19947;-76
2023/12/05 10:26:55;;;;;;;;;;;;;;;2.42;100.00;100115.38;5070465;28;19925;-76
2023/12/05 10:29:20;;;;;;;;;;;;;;;2.42;100.00;100118.81;5053163;28;19916;-76
2023/12/05 10:31:46;;;;;;;;;;;;;;;2.43;100.00;100115.38;5030702;28;20015;-76
2023/12/05 10:34:12;;;;;;;;;;;;;;;2.46;100.00;100118.81;5052374;28;19924;-78
2023/12/05 10:36:37;;;;;;;;;;;;;;;2.46;100.00;100122.31;5033195;28;19925;-79
2023/12/05 10:39:06;;;;;;;;;;;;;;;2.45;100.00;100123.16;5034218;28;19971;-78
2023/12/05 10:41:31;;;;;;;;;;;;;;;2.46;100.00;100124.00;5047195;28;20405;-78
2023/12/05 10:43:57;;;;;;;;;;;;;;;2.43;100.00;100125.72;5034330;28;20024;-77
2023/12/05 10:46:26;;;;;;;;;;;;;;;2.43;100.00;100127.44;5031607;28;19921;-78
2023/12/05 10:48:51;;;;;;;;;;;;;;;2.44;100.00;100134.34;5045614;28;19924;-78
2023/12/05 10:51:17;;;;;;;;;;;;;;;2.49;100.00;100132.66;5035065;28;19921;-77
2023/12/05 10:53:42;;;;;;;;;;;;;;;2.45;100.00;100132.63;5051167;28;19913;-76
2023/12/05 10:56:16;;;;;;;;;;;;;;;2.43;100.00;100130.88;5051550;28;19966;-80
2023/12/05 10:58:42;;;;;;;;;;;;;;;2.43;100.00;100141.22;5047635;28;19924;-79
2023/12/05 11:01:09;;;;;;;;;;;;;;;2.49;100.00;100147.34;5041067;28;20394;-79
2023/12/05 11:03:36;;;;;;;;;;;;;;;2.49;100.00;100149.91;5048484;28;20028;-78
2023/12/05 11:06:02;;;;;;;;;;;;;;;2.44;100.00;100147.25;5032428;28;19921;-77
2023/12/05 11:08:27;;;;;;;;;;;;;;;2.50;100.00;100154.22;5050442;28;19920;-78
2023/12/05 11:10:53;;;;;;;;;;;;;;;2.39;100.00;100159.28;5033550;28;20366;-78
2023/12/05 11:13:20;;;;;;;;;;;;;;;2.34;100.00;100156.66;5046829;28;19921;-79
2023/12/05 11:15:48;;;;;;;;;;;;;;;2.38;100.00;100160.13;5036558;28;19920;-78
2023/12/05 11:18:34;;;;;;;;;;;;;;;2.37;100.00;100169.63;5049524;28;20338;-78
2023/12/05 11:20:59;;;;;;;;;;;;;;;2.33;100.00;100160.09;5039446;28;20332;-76
2023/12/05 11:23:37;;;;;;;;;;;;;;;2.33;100.00;100157.50;5034043;28;20023;-78
2023/12/05 11:26:22;;;;;;;;;;;;;;;2.31;100.00;100160.91;5050088;28;20320;-78
2023/12/05 11:28:50;;;;;;;;;;;;;;;2.30;100.00;100170.41;5047399;28;19917;-77
2023/12/05 11:31:15;;;;;;;;;;;;;;;2.29;100.00;100176.41;5046542;28;19921;-77
2023/12/05 11:33:59;;;;;;;;;;;;;;;2.27;100.00;100175.56;5038662;28;20290;-77
2023/12/05 11:36:36;;;;;;;;;;;;;;;2.19;100.00;100172.00;5037108;28;19917;-77
2023/12/05 11:39:03;;;;;;;;;;;;;;;2.20;100.00;100174.59;5046330;28;19921;-77
2023/12/05 11:41:29;;;;;;;;;;;;;;;2.17;100.00;100177.16;5025168;28;19925;-77
2023/12/05 11:44:13;;;;;;;;;;;;;;;2.13;100.00;100182.28;5026217;28;19948;-78
2023/12/05 11:46:42;;;;;;;;;;;;;;;2.11;100.00;100189.13;5037806;28;19927;-76
2023/12/05 11:49:07;;;;;;;;;;;;;;;2.15;100.00;100185.72;5040739;28;19913;-75
2023/12/05 11:51:33;;;;;;;;;;;;;;;2.10;100.00;100183.09;5034581;28;20015;-77
2023/12/05 11:54:02;;;;;;;;;;;;;;;2.15;100.00;100194.34;5047634;28;19924;-77
2023/12/05 11:56:28;;;;;;;;;;;;;;;2.10;100.00;100205.47;5044376;28;19917;-77
2023/12/05 11:59:13;;;;;;;;;;;;;;;2.14;100.00;100200.38;5054206;28;19912;-78
2023/12/05 12:01:38;;;;;;;;;;;;;;;2.13;100.00;100201.22;5033157;28;20027;-77
2023/12/05 12:04:17;;;;;;;;;;;;;;;2.09;100.00;100202.03;5052982;28;20008;-77
2023/12/05 12:06:44;;;;;;;;;;;;;;;2.12;100.00;100212.41;5052647;28;19913;-78
2023/12/05 12:09:11;;;;;;;;;;;;;;;2.14;100.00;100212.41;5050414;28;19970;-77
2023/12/05 12:11:38;;;;;;;;;;;;;;;2.08;100.00;100220.97;5021548;28;20012;-77
2023/12/05 12:14:16;;;;;;;;;;;;;;;2.04;100.00;100225.25;5047820;28;19913;-78
2023/12/05 12:16:42;;;;;;;;;;;;;;;1.99;100.00;100221.72;5055576;28;20313;-78
2023/12/05 12:19:14;;;;;;;;;;;;;;;1.97;100.00;100227.72;5054247;28;20031;-77
2023/12/05 12:21:40;;;;;;;;;;;;;;;1.91;100.00;100225.91;5046705;28;20017;-77
2023/12/05 12:24:26;;;;;;;;;;;;;;;1.89;100.00;100230.19;5036306;28;20019;-77
2023/12/05 12:26:55;;;;;;;;;;;;;;;1.92;100.00;100224.22;5035728;28;19971;-78
2023/12/05 12:29:21;;;;;;;;;;;;;;;1.85;100.00;100226.72;5054305;28;19913;-78
2023/12/05 12:32:03;;;;;;;;;;;;;;;1.90;100.00;100229.34;5040698;28;19963;-78
2023/12/05 12:34:28;;;;;;;;;;;;;;;1.82;100.00;100241.28;5048532;28;19928;-77
2023/12/05 12:36:55;;;;;;;;;;;;;;;1.89;100.00;100235.38;5035811;28;19916;-78
2023/12/05 12:39:22;;;;;;;;;;;;;;;1.84;100.00;100242.16;5043994;28;19921;-77